createdAt,value
2022-09-03T00:05:51.670Z,46.07
2022-09-03T00:12:54.279Z,46.70
2022-09-03T00:20:17.431Z,46.77
2022-09-03T00:27:22.662Z,46.90
2022-09-03T00:34:32.761Z,47.13
2022-09-03T00:41:44.336Z,47.08
2022-09-03T00:49:07.832Z,47.66
2022-09-03T00:56:36.706Z,47.80
2022-09-03T01:03:51.181Z,47.89
2022-09-03T01:11:03.089Z,48.08
2022-09-03T01:18:26.302Z,48.14
2022-09-03T01:25:41.057Z,48.55
2022-09-03T01:33:11.487Z,48.69
2022-09-03T01:40:36.095Z,48.74
2022-09-03T01:47:56.236Z,49.21
2022-09-03T01:55:17.084Z,49.40
2022-09-03T02:02:21.299Z,49.75
2022-09-03T02:09:23.144Z,49.78
2022-09-03T02:16:28.776Z,49.93
2022-09-03T02:23:30.888Z,50.01
2022-09-03T02:30:32.638Z,50.36
2022-09-03T02:37:34.921Z,50.41
2022-09-03T02:44:37.684Z,50.64
2022-09-03T02:51:41.774Z,50.74
2022-09-03T02:58:44.339Z,50.94
2022-09-03T03:05:55.975Z,51.04
2022-09-03T03:12:57.630Z,51.03
2022-09-03T03:19:59.320Z,51.12
2022-09-03T03:27:00.971Z,51.25
2022-09-03T03:34:02.987Z,51.24
2022-09-03T03:41:24.051Z,51.41
2022-09-03T03:48:26.168Z,51.76
2022-09-03T03:55:27.782Z,51.79
2022-09-03T04:02:29.479Z,51.77
2022-09-03T04:09:31.133Z,51.80
2022-09-03T04:16:33.067Z,51.95
2022-09-03T04:23:37.126Z,52.27
2022-09-03T04:30:38.836Z,52.83
2022-09-03T04:37:40.457Z,53.39
2022-09-03T04:44:42.156Z,53.90
2022-09-03T04:51:44.863Z,54.40
2022-09-03T04:58:46.824Z,54.87
2022-09-03T05:05:55.936Z,55.67
2022-09-03T05:13:01.395Z,56.41
2022-09-03T05:20:03.293Z,56.72
2022-09-03T05:27:04.910Z,56.95
2022-09-03T05:34:06.658Z,57.54
2022-09-03T05:41:09.531Z,57.91
2022-09-03T05:48:11.138Z,58.15
2022-09-03T05:55:13.557Z,58.42
2022-09-03T06:02:18.007Z,58.47
2022-09-03T06:09:23.468Z,58.60
2022-09-03T06:16:30.597Z,58.17
2022-09-03T06:23:34.790Z,57.92
2022-09-03T06:30:38.021Z,58.18
2022-09-03T06:37:42.747Z,57.31
2022-09-03T06:44:45.293Z,56.59
2022-09-03T06:51:47.823Z,55.61
2022-09-03T06:58:50.466Z,55.57
2022-09-03T07:05:52.116Z,54.84
2022-09-03T07:12:55.897Z,53.32
2022-09-03T07:19:57.575Z,51.70
2022-09-03T07:26:59.272Z,50.09
2022-09-03T07:34:10.254Z,49.06
2022-09-03T07:41:13.127Z,48.52
2022-09-03T07:48:28.723Z,48.25
2022-09-03T07:55:30.353Z,48.26
2022-09-03T08:02:32.064Z,47.75
2022-09-03T08:09:36.363Z,45.23
2022-09-03T08:16:43.347Z,45.36
2022-09-03T08:23:46.255Z,45.00
2022-09-03T08:30:47.885Z,44.47
2022-09-03T08:37:54.832Z,43.55
2022-09-03T08:45:00.478Z,42.34
2022-09-03T08:52:04.457Z,41.62
2022-09-03T08:59:06.046Z,39.66
2022-09-03T09:06:27.625Z,37.50
2022-09-03T09:13:42.661Z,36.55
2022-09-03T09:20:53.420Z,35.75
2022-09-03T09:27:59.498Z,34.64
2022-09-03T09:35:01.462Z,33.84
2022-09-03T09:42:09.556Z,32.41
2022-09-03T09:49:36.128Z,31.32
2022-09-03T09:56:37.777Z,30.99
2022-09-03T10:03:51.371Z,28.34
2022-09-03T10:10:53.009Z,28.25
2022-09-03T10:18:00.057Z,26.85
2022-09-03T10:25:02.630Z,25.72
2022-09-03T10:32:25.506Z,24.59
2022-09-03T10:39:58.885Z,24.19
2022-09-03T10:47:26.370Z,26.89
2022-09-03T10:54:43.152Z,28.52
2022-09-03T11:02:04.558Z,29.26
2022-09-03T11:09:38.008Z,29.50
2022-09-03T11:16:48.669Z,28.60
2022-09-03T11:24:08.769Z,28.45
2022-09-03T11:31:13.788Z,29.91
2022-09-03T11:38:15.508Z,27.58
2022-09-03T11:45:32.225Z,27.94
2022-09-03T11:52:40.254Z,28.22
2022-09-03T11:59:43.069Z,26.65
2022-09-03T12:07:08.919Z,27.08
2022-09-03T12:14:14.128Z,28.00
2022-09-03T12:21:16.937Z,28.68
2022-09-03T12:28:21.866Z,26.44
2022-09-03T12:42:46.069Z,28.17
2022-09-03T12:49:49.353Z,26.14
2022-09-03T12:56:56.561Z,26.67
2022-09-03T13:04:10.141Z,27.55
2022-09-03T13:11:18.186Z,28.16
2022-09-03T13:18:31.575Z,27.19
2022-09-03T13:25:56.045Z,26.34
2022-09-03T13:33:16.889Z,24.76
2022-09-03T13:40:23.622Z,24.14
2022-09-03T13:47:34.152Z,23.44
2022-09-03T13:54:49.100Z,23.52
2022-09-03T14:02:06.162Z,23.34
2022-09-03T14:09:26.693Z,22.94
2022-09-03T14:16:34.896Z,22.21
2022-09-03T14:23:51.480Z,22.39
2022-09-03T14:30:58.935Z,24.01
2022-09-03T14:38:37.979Z,25.53
2022-09-03T14:46:01.161Z,24.85
2022-09-03T14:53:20.907Z,24.95
2022-09-03T15:00:36.391Z,26.13
2022-09-03T15:07:54.167Z,26.76
2022-09-03T15:14:59.291Z,27.33
2022-09-03T15:22:19.034Z,26.68
2022-09-03T15:29:27.113Z,26.68
2022-09-03T15:36:36.266Z,25.84
2022-09-03T15:43:37.880Z,25.22
2022-09-03T15:51:10.524Z,25.50
2022-09-03T15:58:20.922Z,25.55
2022-09-03T16:05:39.178Z,25.86
2022-09-03T16:13:04.662Z,25.66
2022-09-03T16:20:19.333Z,26.02
2022-09-03T16:27:25.288Z,27.08
2022-09-03T16:34:35.972Z,28.02
2022-09-03T16:41:51.812Z,28.20
2022-09-03T16:49:33.680Z,27.92
2022-09-03T16:56:58.807Z,28.36
2022-09-03T17:04:09.882Z,29.20
2022-09-03T17:11:37.918Z,29.90
2022-09-03T17:19:02.213Z,30.42
2022-09-03T17:26:06.873Z,30.92
2022-09-03T17:33:45.590Z,31.14
2022-09-03T17:41:24.772Z,31.35
2022-09-03T17:48:49.709Z,32.05
2022-09-03T17:56:12.123Z,32.19
2022-09-03T18:03:19.077Z,32.53
2022-09-03T18:10:29.235Z,32.49
2022-09-03T18:17:59.162Z,32.59
2022-09-03T18:25:19.166Z,33.26
2022-09-03T18:32:39.334Z,33.14
2022-09-03T18:39:59.653Z,33.47
2022-09-03T18:55:20.573Z,33.69
2022-09-03T19:02:48.976Z,34.02
2022-09-03T19:10:14.674Z,33.83
2022-09-03T19:17:38.931Z,34.29
2022-09-03T19:24:59.346Z,34.58
2022-09-03T19:32:20.094Z,34.61
2022-09-03T19:39:49.622Z,34.95
2022-09-03T19:47:10.214Z,35.03
2022-09-03T19:54:30.519Z,35.50
2022-09-03T20:01:53.894Z,35.57
2022-09-03T20:09:14.108Z,35.23
2022-09-03T20:16:22.660Z,35.77
2022-09-03T20:23:58.227Z,35.79
2022-09-03T20:31:08.941Z,35.91
2022-09-03T20:38:36.723Z,35.82
2022-09-03T20:46:06.050Z,36.22
2022-09-03T20:53:39.152Z,35.82
2022-09-03T21:01:05.293Z,36.11
2022-09-03T21:08:31.269Z,36.20
2022-09-03T21:15:44.832Z,36.61
2022-09-03T21:22:55.901Z,36.51
2022-09-03T21:29:59.434Z,36.65
2022-09-03T21:37:03.805Z,36.95
2022-09-03T21:44:15.145Z,37.05
2022-09-03T21:51:36.042Z,36.73
2022-09-03T21:58:49.819Z,36.96
2022-09-03T22:05:58.599Z,37.42
2022-09-03T22:13:58.944Z,37.61
2022-09-03T22:21:20.453Z,37.79
2022-09-03T22:28:31.114Z,38.05
2022-09-03T22:35:46.452Z,38.56
2022-09-03T22:42:51.052Z,38.44
2022-09-03T22:50:35.364Z,38.54
2022-09-03T22:57:41.004Z,38.75
2022-09-03T23:05:08.351Z,39.04
2022-09-03T23:12:50.258Z,39.10
2022-09-03T23:27:06.544Z,39.77
2022-09-03T23:34:09.522Z,40.01
2022-09-03T23:41:13.378Z,40.31
2022-09-03T23:48:53.348Z,40.54
2022-09-03T23:56:10.805Z,41.08
